Terminal Aerodrome Forecast
Issued by NWS

Home | Current Version | Previous Version | Text Only | Print | Product List | Glossary On
Versions: 1 2 3 4 5 6 7 8 9 10 11 12 13 14 15 16 17 18 19 20 21 22 23 24 25 26 27 28 29 30 31 32 33 34
000
FTUS43 KDLH 151600 AAA
TAFHYR
TAF AMD
KHYR 151621Z 1516/1612 19007KT 1/4SM -DZ FG OVC003
      TEMPO 1516/1519 1 1/2SM -RA
     FM151900 VRB05KT 2SM -RA BR OVC005
     FM160000 36012KT 2SM -RASNPL OVC007
     FM160600 35014G25KT 2SM -SN BKN010 OVC022=

USA.gov is the U.S. government's official web portal to all federal, state and local government web resources and services.